| time (UTC) | temp F | wind direction | speed MPH | gust MPH | rain 1hr in | rain 24hr in | rain mn in | humidity % | barometer mb |
| 20260507211502 | 62 | 19 | 0.0 | 0.0 | 0.00 | 0.06 | 0.06 | 82 | 1013.0 |
| 20260507210105 | 62 | 19 | 0.0 | 0.0 | 0.00 | 0.06 | 0.06 | 82 | 1012.9 |
| 20260507204558 | 62 | 19 | 0.0 | 0.0 | 0.00 | 0.06 | 0.06 | 81 | 1013.0 |
| 20260507203109 | 62 | 21 | 0.0 | 0.0 | 0.00 | 0.06 | 0.06 | 80 | 1013.1 |
| 20260507201600 | 63 | 22 | 0.0 | 0.0 | 0.00 | 0.06 | 0.06 | 79 | 1013.1 |
| 20260507200026 | 63 | 20 | 0.0 | 0.0 | 0.00 | 0.06 | 0.06 | 79 | 1012.9 |
| 20260507194526 | 64 | 21 | 0.0 | 0.0 | 0.00 | 0.06 | 0.06 | 78 | 1013.0 |
| 20260507193022 | 64 | 22 | 0.0 | 0.0 | 0.00 | 0.06 | 0.06 | 78 | 1012.8 |
| 20260507191521 | 64 | 23 | 0.0 | 2.0 | 0.00 | 0.06 | 0.06 | 77 | 1012.7 |
| 20260507190021 | 65 | 24 | 0.0 | 0.0 | 0.00 | 0.06 | 0.06 | 76 | 1012.5 |
| 20260507184519 | 65 | 20 | 0.0 | 0.0 | 0.00 | 0.06 | 0.06 | 75 | 1012.4 |
| 20260507183018 | 65 | 22 | 0.0 | 0.0 | 0.00 | 0.06 | 0.06 | 74 | 1012.3 |
| 20260507181521 | 66 | 28 | 0.0 | 0.0 | 0.00 | 0.06 | 0.06 | 73 | 1012.3 |
| 20260507180022 | 67 | 22 | 0.0 | 0.0 | 0.00 | 0.06 | 0.06 | 72 | 1012.1 |
| 20260507174516 | 68 | 17 | 0.0 | 1.0 | 0.00 | 0.06 | 0.06 | 71 | 1012.0 |
| 20260507173027 | 68 | 184 | 0.0 | 2.0 | 0.00 | 0.06 | 0.06 | 70 | 1011.9 |
| 20260507171512 | 68 | 107 | 0.0 | 1.0 | 0.00 | 0.06 | 0.06 | 70 | 1012.0 |
| 20260507170012 | 69 | 334 | 0.0 | 1.0 | 0.00 | 0.06 | 0.06 | 71 | 1011.9 |
| 20260507164512 | 69 | 192 | 0.0 | 4.0 | 0.00 | 0.06 | 0.06 | 74 | 1011.9 |
| 20260507163011 | 69 | 5 | 0.0 | 3.0 | 0.00 | 0.06 | 0.06 | 75 | 1011.9 |
| 20260507161508 | 70 | 64 | 0.0 | 1.0 | 0.00 | 0.06 | 0.06 | 76 | 1011.9 |
| 20260507160008 | 71 | 91 | 0.0 | 6.0 | 0.00 | 0.06 | 0.06 | 73 | 1012.0 |
| 20260507154507 | 71 | 80 | 0.0 | 5.0 | 0.00 | 0.06 | 0.06 | 72 | 1012.0 |
| 20260507153036 | 70 | 101 | 0.0 | 3.0 | 0.00 | 0.06 | 0.06 | 71 | 1011.9 |
| 20260507151536 | 70 | 87 | 0.0 | 0.0 | 0.00 | 0.06 | 0.06 | 68 | 1012.0 |
| 20260507150012 | 71 | 27 | 0.0 | 6.0 | 0.00 | 0.06 | 0.06 | 65 | 1012.0 |
| 20260507144516 | 71 | 45 | 0.0 | 4.0 | 0.00 | 0.06 | 0.06 | 64 | 1012.1 |
| 20260507143003 | 71 | 16 | 0.0 | 4.0 | 0.00 | 0.06 | 0.06 | 63 | 1012.1 |
| 20260507141502 | 71 | 74 | 0.0 | 4.0 | 0.00 | 0.06 | 0.06 | 63 | 1012.1 |
| 20260507140002 | 70 | 27 | 0.0 | 5.0 | 0.00 | 0.06 | 0.06 | 63 | 1012.2 |
| 20260507134501 | 70 | 51 | 0.0 | 8.0 | 0.00 | 0.06 | 0.06 | 63 | 1012.3 |
| 20260507133133 | 70 | 40 | 0.0 | 3.0 | 0.00 | 0.06 | 0.06 | 64 | 1012.3 |
| 20260507131558 | 70 | 23 | 0.0 | 2.0 | 0.00 | 0.06 | 0.06 | 66 | 1012.3 |
| 20260507130108 | 69 | 14 | 0.0 | 5.0 | 0.00 | 0.06 | 0.06 | 67 | 1012.3 |
| 20260507124557 | 68 | 98 | 0.0 | 4.0 | 0.00 | 0.06 | 0.06 | 66 | 1012.3 |
| 20260507123055 | 69 | 74 | 1.0 | 5.0 | 0.00 | 0.06 | 0.06 | 65 | 1012.3 |
| 20260507121606 | 68 | 15 | 1.0 | 6.0 | 0.00 | 0.06 | 0.06 | 65 | 1012.4 |
| 20260507120100 | 68 | 85 | 0.0 | 6.0 | 0.00 | 0.06 | 0.06 | 64 | 1012.5 |
| 20260507114634 | 69 | 47 | 0.0 | 3.0 | 0.00 | 0.06 | 0.06 | 62 | 1012.5 |
| 20260507113050 | 69 | 35 | 0.0 | 9.0 | 0.00 | 0.06 | 0.06 | 62 | 1012.6 |
| 20260507111555 | 70 | 78 | 0.0 | 4.0 | 0.00 | 0.06 | 0.06 | 60 | 1012.6 |
| 20260507110049 | 70 | 19 | 0.0 | 3.0 | 0.00 | 0.06 | 0.06 | 64 | 1012.7 |
| 20260507104548 | 71 | 308 | 0.0 | 3.0 | 0.00 | 0.06 | 0.06 | 61 | 1012.7 |
| 20260507103044 | 71 | 21 | 0.0 | 2.0 | 0.00 | 0.06 | 0.06 | 61 | 1012.7 |
| 20260507101546 | 70 | 80 | 0.0 | 6.0 | 0.00 | 0.06 | 0.06 | 65 | 1012.8 |
| 20260507100042 | 69 | 97 | 0.0 | 3.0 | 0.00 | 0.06 | 0.06 | 66 | 1012.7 |
| 20260507094540 | 68 | 10 | 0.0 | 8.0 | 0.00 | 0.06 | 0.06 | 66 | 1012.7 |
| 20260507093041 | 68 | 333 | 1.0 | 6.0 | 0.00 | 0.06 | 0.06 | 72 | 1012.6 |
| 20260507091542 | 68 | 75 | 1.0 | 6.0 | 0.00 | 0.06 | 0.06 | 72 | 1012.5 |
| 20260507090037 | 71 | 34 | 0.0 | 4.0 | 0.00 | 0.06 | 0.06 | 65 | 1012.4 |
| 20260507084532 | 72 | 11 | 0.0 | 2.0 | 0.00 | 0.06 | 0.06 | 65 | 1012.4 |
| 20260507083032 | 72 | 82 | 0.0 | 4.0 | 0.00 | 0.06 | 0.06 | 61 | 1012.3 |
| 20260507081523 | 71 | 140 | 0.0 | 0.0 | 0.00 | 0.06 | 0.06 | 65 | 1012.0 |
| 20260507080023 | 68 | 126 | 0.0 | 0.0 | 0.00 | 0.06 | 0.06 | 69 | 1012.0 |
| 20260507074516 | 67 | 117 | 0.0 | 1.0 | 0.00 | 0.06 | 0.06 | 71 | 1012.1 |
| 20260507073014 | 67 | 221 | 0.0 | 2.0 | 0.00 | 0.06 | 0.06 | 72 | 1012.0 |
| 20260507071509 | 66 | 236 | 0.0 | 0.0 | 0.00 | 0.06 | 0.06 | 75 | 1012.2 |
| 20260507070010 | 64 | 226 | 0.0 | 0.0 | 0.00 | 0.06 | 0.06 | 81 | 1012.2 |
| 20260507064504 | 63 | 254 | 0.0 | 0.0 | 0.00 | 0.06 | 0.06 | 85 | 1012.0 |
| 20260507063005 | 62 | 193 | 0.0 | 0.0 | 0.00 | 0.06 | 0.06 | 88 | 1011.9 |
| 20260507061600 | 61 | 211 | 0.0 | 2.0 | 0.00 | 0.06 | 0.06 | 89 | 1012.1 |
| 20260507060058 | 60 | 202 | 0.0 | 0.0 | 0.00 | 0.06 | 0.06 | 90 | 1012.0 |
| 20260507054555 | 60 | 217 | 0.0 | 0.0 | 0.00 | 0.06 | 0.06 | 91 | 1012.0 |
| 20260507053052 | 60 | 174 | 0.0 | 0.0 | 0.00 | 0.06 | 0.06 | 91 | 1011.8 |
| 20260507051520 | 59 | 213 | 0.0 | 1.0 | 0.00 | 0.06 | 0.06 | 92 | 1011.5 |
| 20260507050020 | 59 | 210 | 0.0 | 0.0 | 0.00 | 0.06 | 0.06 | 92 | 1011.4 |
| 20260507044544 | 59 | 208 | 0.0 | 0.0 | 0.00 | 0.08 | 0.06 | 92 | 1011.1 |
| 20260507043043 | 59 | 209 | 0.0 | 0.0 | 0.00 | 0.08 | 0.06 | 92 | 1011.0 |
| 20260507041512 | 59 | 210 | 0.0 | 0.0 | 0.00 | 0.08 | 0.06 | 92 | 1011.1 |
| 20260507040011 | 59 | 211 | 0.0 | 0.0 | 0.00 | 0.08 | 0.06 | 91 | 1010.8 |
| 20260507034505 | 60 | 211 | 0.0 | 0.0 | 0.00 | 0.08 | 0.06 | 91 | 1010.8 |
| 20260507033005 | 60 | 212 | 0.0 | 0.0 | 0.00 | 0.08 | 0.06 | 91 | 1010.9 |
| 20260507031504 | 60 | 212 | 0.0 | 0.0 | 0.00 | 0.08 | 0.06 | 91 | 1010.9 |
| 20260507030002 | 60 | 212 | 0.0 | 0.0 | 0.00 | 0.08 | 0.06 | 90 | 1010.7 |
| 20260507024608 | 61 | 212 | 0.0 | 0.0 | 0.01 | 0.08 | 0.06 | 90 | 1010.8 |
| 20260507023057 | 61 | 212 | 0.0 | 0.0 | 0.02 | 0.08 | 0.06 | 89 | 1010.7 |
| 20260507021559 | 61 | 212 | 0.0 | 0.0 | 0.04 | 0.08 | 0.06 | 89 | 1010.5 |
| 20260507020109 | 62 | 212 | 0.0 | 0.0 | 0.06 | 0.08 | 0.06 | 88 | 1010.7 |
| 20260507014553 | 62 | 212 | 0.0 | 0.0 | 0.05 | 0.07 | 0.05 | 86 | 1010.8 |
| 20260507013054 | 63 | 212 | 0.0 | 0.0 | 0.04 | 0.06 | 0.04 | 85 | 1010.6 |
| 20260507011545 | 63 | 211 | 0.0 | 0.0 | 0.02 | 0.04 | 0.02 | 82 | 1010.7 |
| 20260507010045 | 64 | 162 | 0.0 | 1.0 | 0.00 | 0.02 | 0.00 | 80 | 1010.6 |
| 20260507004548 | 64 | 187 | 0.0 | 1.0 | 0.00 | 0.03 | 0.00 | 78 | 1010.5 |
| 20260507003044 | 65 | 216 | 0.0 | 0.0 | 0.00 | 0.03 | 0.00 | 77 | 1010.5 |
| 20260507001544 | 65 | 200 | 0.0 | 1.0 | 0.00 | 0.03 | 0.00 | 77 | 1010.4 |
| 20260507000035 | 65 | 222 | 0.0 | 2.0 | 0.00 | 0.03 | 0.00 | 76 | 1010.7 |
| 20260506234534 | 65 | 233 | 0.0 | 3.0 | 0.00 | 0.09 | 0.00 | 75 | 1010.8 |
| 20260506233029 | 66 | 191 | 0.0 | 1.0 | 0.00 | 0.09 | 0.00 | 74 | 1010.8 |
| 20260506231528 | 66 | 179 | 0.0 | 0.0 | 0.00 | 0.09 | 0.00 | 74 | 1010.8 |
| 20260506230027 | 66 | 198 | 0.0 | 0.0 | 0.00 | 0.09 | 0.00 | 73 | 1010.8 |
| 20260506224559 | 66 | 196 | 0.0 | 0.0 | 0.00 | 0.18 | 0.00 | 73 | 1010.8 |
| 20260506223055 | 66 | 242 | 0.0 | 0.0 | 0.00 | 0.18 | 0.00 | 71 | 1010.9 |
| 20260506221551 | 66 | 242 | 0.0 | 0.0 | 0.00 | 0.18 | 0.00 | 71 | 1011.0 |
| 20260506220051 | 66 | 237 | 0.0 | 0.0 | 0.00 | 0.18 | 0.00 | 71 | 1010.9 |
| 20260506214553 | 66 | 297 | 0.0 | 0.0 | 0.00 | 0.30 | 0.18 | 71 | 1011.0 |
| 20260506213108 | 66 | 199 | 0.0 | 2.0 | 0.00 | 0.30 | 0.18 | 70 | 1010.9 |